Time;durP1;ratioP1;P1;durP2;ratioP2;P2;SDS_P1;SDS_P2;PMS_P1;PMS_P2;Temp;Humidity;BMP_temperature;BMP_pressure;BME280_temperature;BME280_humidity;BME280_pressure;Samples;Min_cycle;Max_cycle;Signal;HPM_P1;HPM_P2
2021/01/12 00:01:11;;;;;;;0.00;0.00;;;4.40;99.90;;;;;;5017346;28;20233;-70
2021/01/12 00:03:37;;;;;;;0.00;0.00;;;4.30;99.90;;;;;;5016804;28;20512;-69
2021/01/12 00:06:03;;;;;;;0.00;0.00;;;4.40;99.90;;;;;;5016219;28;20574;-69
2021/01/12 00:08:30;;;;;;;0.00;0.00;;;4.40;99.90;;;;;;5015071;28;20221;-69
2021/01/12 00:10:57;;;;;;;0.00;0.00;;;4.40;99.90;;;;;;5014701;28;20225;-68
2021/01/12 00:13:23;;;;;;;0.00;0.00;;;4.40;99.90;;;;;;5015317;28;20253;-70
2021/01/12 00:15:50;;;;;;;0.00;0.00;;;4.40;99.90;;;;;;5016726;28;20201;-69
2021/01/12 00:18:16;;;;;;;0.00;0.00;;;4.40;99.90;;;;;;5017497;28;20198;-69
2021/01/12 00:20:42;;;;;;;0.00;0.00;;;4.40;99.90;;;;;;5016543;28;20278;-69
2021/01/12 00:23:08;;;;;;;0.00;0.00;;;4.30;99.90;;;;;;5017007;28;20264;-69
2021/01/12 00:25:35;;;;;;;0.00;0.00;;;4.40;99.90;;;;;;5015786;28;20201;-68
2021/01/12 00:28:01;;;;;;;0.00;0.00;;;4.40;99.90;;;;;;5014218;28;20231;-69
2021/01/12 00:30:27;;;;;;;0.00;0.00;;;4.40;99.90;;;;;;5013848;28;20221;-69
2021/01/12 00:32:53;;;;;;;0.00;0.00;;;4.40;99.90;;;;;;5014226;28;20671;-69
2021/01/12 00:35:19;;;;;;;;;;;4.50;99.90;;;;;;5014558;28;20060;-69
2021/01/12 00:37:45;;;;;;;;;;;4.40;99.90;;;;;;5014631;28;20301;-69
2021/01/12 00:40:12;;;;;;;;;;;4.50;99.90;;;;;;5013907;28;20378;-69
2021/01/12 00:42:39;;;;;;;;;;;4.50;99.90;;;;;;5014459;28;19921;-69
2021/01/12 00:45:05;;;;;;;;;;;4.50;99.90;;;;;;5014059;28;19984;-69
2021/01/12 00:47:32;;;;;;;;;;;4.50;99.90;;;;;;5014662;28;19929;-70
2021/01/12 00:49:58;;;;;;;;;;;4.50;99.90;;;;;;5014360;28;20409;-69
2021/01/12 00:52:24;;;;;;;;;;;4.50;99.90;;;;;;5014035;28;19921;-69
2021/01/12 00:54:50;;;;;;;;;;;4.50;99.90;;;;;;5014262;28;19922;-68
2021/01/12 00:57:16;;;;;;;;;;;4.50;99.90;;;;;;5014243;28;19922;-69
2021/01/12 00:59:45;;;;;;;;;;;4.50;99.90;;;;;;5013908;28;20302;-70
2021/01/12 01:02:11;;;;;;;;;;;4.60;99.90;;;;;;5013769;28;19921;-69
2021/01/12 01:04:37;;;;;;;;;;;4.50;99.90;;;;;;5014188;28;19968;-68
2021/01/12 01:07:03;;;;;;;;;;;4.60;99.90;;;;;;5014157;28;19925;-69
2021/01/12 01:09:29;;;;;;;;;;;4.60;99.90;;;;;;5013715;28;19928;-68
2021/01/12 01:11:55;;;;;;;;;;;4.60;99.90;;;;;;5013793;28;19953;-68
2021/01/12 01:14:22;;;;;;;;;;;4.60;99.90;;;;;;5014021;28;19944;-68
2021/01/12 01:16:49;;;;;;;;;;;4.60;99.90;;;;;;5014079;28;19925;-69
2021/01/12 01:19:15;;;;;;;;;;;4.60;99.90;;;;;;5013691;28;19921;-69
2021/01/12 01:21:41;;;;;;;;;;;4.70;99.90;;;;;;5013441;28;19925;-67
2021/01/12 01:24:08;;;;;;;;;;;4.70;99.90;;;;;;5013733;28;19921;-68
2021/01/12 01:26:34;;;;;;;;;;;4.60;99.90;;;;;;5013589;28;19925;-68
2021/01/12 01:29:00;;;;;;;;;;;4.70;99.90;;;;;;5013504;28;19929;-68
2021/01/12 01:31:33;;;;;;;;;;;4.70;99.90;;;;;;5013256;28;20301;-68
2021/01/12 01:34:00;;;;;;;;;;;4.70;99.90;;;;;;5013747;28;19921;-68
2021/01/12 01:36:26;;;;;;;;;;;4.70;99.90;;;;;;5013469;28;19925;-68
2021/01/12 01:38:52;;;;;;;;;;;4.70;99.90;;;;;;5014064;28;19921;-69
2021/01/12 01:41:18;;;;;;;;;;;4.70;99.90;;;;;;5014520;28;19921;-69
2021/01/12 01:43:44;;;;;;;;;;;4.70;99.90;;;;;;5013517;28;19925;-68
2021/01/12 01:46:10;;;;;;;;;;;4.60;99.90;;;;;;5013952;28;19991;-69
2021/01/12 01:48:36;;;;;;;;;;;4.70;99.90;;;;;;5014092;28;19928;-69
2021/01/12 01:51:03;;;;;;;;;;;4.70;99.90;;;;;;5014297;28;19921;-69
2021/01/12 01:53:32;;;;;;;;;;;4.70;99.90;;;;;;5013552;28;19928;-70
2021/01/12 01:55:59;;;;;;;;;;;4.70;99.90;;;;;;5013065;28;19925;-69
2021/01/12 01:58:25;;;;;;;;;;;4.70;99.90;;;;;;5013487;28;20297;-69
2021/01/12 02:00:51;;;;;;;;;;;4.70;99.90;;;;;;5012913;28;19922;-68
2021/01/12 02:03:22;;;;;;;;;;;4.70;99.90;;;;;;5013232;28;19925;-69
2021/01/12 02:05:50;;;;;;;;;;;4.70;99.90;;;;;;5013142;28;20318;-69
2021/01/12 02:08:19;;;;;;;;;;;4.70;99.90;;;;;;5012624;28;20001;-69
2021/01/12 02:10:46;;;;;;;;;;;4.70;99.90;;;;;;5012444;28;19929;-68
2021/01/12 02:13:14;;;;;;;;;;;4.70;99.90;;;;;;5012673;28;20476;-69
2021/01/12 02:15:40;;;;;;;;;;;4.70;1.00;;;;;;5013022;28;19929;-69
2021/01/12 02:18:07;;;;;;;;;;;4.70;1.00;;;;;;5012679;28;19921;-69
2021/01/12 02:20:33;;;;;;;;;;;4.70;1.00;;;;;;5012406;28;20293;-68
2021/01/12 02:23:04;;;;;;;;;;;4.70;1.00;;;;;;5012325;28;19921;-69
2021/01/12 02:25:31;;;;;;;;;;;4.70;1.00;;;;;;5012602;28;19928;-69
2021/01/12 02:27:57;;;;;;;;;;;4.70;1.00;;;;;;5012771;28;20306;-68
2021/01/12 02:30:24;;;;;;;;;;;4.70;1.00;;;;;;5012100;28;19935;-69
2021/01/12 02:32:50;;;;;;;;;;;4.70;1.00;;;;;;5012845;28;19921;-70
2021/01/12 02:35:17;;;;;;;;;;;4.70;1.00;;;;;;5012533;28;19922;-69
2021/01/12 02:37:45;;;;;;;;;;;4.70;1.00;;;;;;5012691;28;19979;-68
2021/01/12 02:40:11;;;;;;;;;;;4.80;1.00;;;;;;5012662;28;19925;-69
2021/01/12 02:42:41;;;;;;;;;;;4.70;1.00;;;;;;5012431;28;20309;-68
2021/01/12 02:45:08;;;;;;;;;;;4.70;1.00;;;;;;5012570;28;19921;-69
2021/01/12 02:47:35;;;;;;;;;;;4.70;99.90;;;;;;5012957;28;19933;-68
2021/01/12 02:50:01;;;;;;;;;;;4.70;99.90;;;;;;5016520;28;19922;-69
2021/01/12 02:52:27;;;;;;;;;;;4.70;99.90;;;;;;5016272;28;19948;-68
2021/01/12 02:54:53;;;;;;;;;;;4.70;1.00;;;;;;5016591;28;19921;-69
2021/01/12 02:57:19;;;;;;;;;;;4.70;1.00;;;;;;5016603;28;19922;-69
2021/01/12 02:59:45;;;;;;;;;;;4.70;1.00;;;;;;5016272;28;19925;-69
2021/01/12 03:02:11;;;;;;;;;;;4.70;1.00;;;;;;5016182;28;19922;-68
2021/01/12 03:04:37;;;;;;;;;;;4.70;1.00;;;;;;5016110;28;19948;-68
2021/01/12 03:07:03;;;;;;;;;;;4.70;1.00;;;;;;5015981;28;19925;-68
2021/01/12 03:09:29;;;;;;;;;;;4.70;1.00;;;;;;5016355;28;19928;-69
2021/01/12 03:11:55;;;;;;;;;;;4.80;1.00;;;;;;5015575;28;19922;-69
2021/01/12 03:14:22;;;;;;;;;;;4.70;1.00;;;;;;5016199;28;20040;-68
2021/01/12 03:16:51;;;;;;;;;;;4.70;1.00;;;;;;5015759;28;19921;-68
2021/01/12 03:19:17;;;;;;;;;;;4.70;1.00;;;;;;5015945;28;19925;-69
2021/01/12 03:21:43;;;;;;;;;;;4.70;1.00;;;;;;5015622;28;20512;-69
2021/01/12 03:24:10;;;;;;;;;;;4.80;1.00;;;;;;5006292;28;19921;-68
2021/01/12 03:26:36;;;;;;;;;;;4.80;1.00;;;;;;4996403;28;20349;-68
2021/01/12 03:29:02;;;;;;;;;;;4.80;1.00;;;;;;4996106;28;19922;-68
2021/01/12 03:31:28;;;;;;;;;;;4.80;1.00;;;;;;4995764;28;19969;-68
2021/01/12 03:33:55;;;;;;;;;;;4.80;1.00;;;;;;4996054;28;19925;-68
2021/01/12 03:36:21;;;;;;;;;;;4.80;1.00;;;;;;4996341;28;20275;-68
2021/01/12 03:38:47;;;;;;;;;;;4.90;1.00;;;;;;4996125;28;19922;-68
2021/01/12 03:41:13;;;;;;;;;;;4.90;1.00;;;;;;4995630;28;19933;-68
2021/01/12 03:43:39;;;;;;;;;;;4.90;1.00;;;;;;4996291;28;19921;-69
2021/01/12 03:46:05;;;;;;;;;;;4.90;1.00;;;;;;4995756;28;19921;-69
2021/01/12 03:48:31;;;;;;;;;;;4.90;1.00;;;;;;4995791;28;19925;-68
2021/01/12 03:50:58;;;;;;;;;;;4.90;1.00;;;;;;4995365;28;20382;-68
2021/01/12 03:53:24;;;;;;;;;;;4.90;1.00;;;;;;4995834;28;19926;-69
2021/01/12 03:55:50;;;;;;;;;;;4.90;1.00;;;;;;4995805;28;20417;-68
2021/01/12 03:58:16;;;;;;;;;;;5.00;1.00;;;;;;4995678;28;19922;-68
2021/01/12 04:00:42;;;;;;;;;;;5.00;1.00;;;;;;4995432;28;20432;-68
2021/01/12 04:03:07;;;;;;;;;;;5.00;1.00;;;;;;4995625;28;19922;-68
2021/01/12 04:05:34;;;;;;;;;;;5.10;1.00;;;;;;4995988;28;19976;-68
2021/01/12 04:08:01;;;;;;;;;;;5.10;1.00;;;;;;4995402;28;20374;-68
2021/01/12 04:10:27;;;;;;;;;;;5.10;1.00;;;;;;4995169;28;19921;-69
2021/01/12 04:12:53;;;;;;;;;;;5.10;1.00;;;;;;4995513;28;19933;-68
2021/01/12 04:15:19;;;;;;;;;;;5.10;1.00;;;;;;4995179;28;20378;-68
2021/01/12 04:17:45;;;;;;;;;;;5.20;1.00;;;;;;4995195;28;19928;-68
2021/01/12 04:20:12;;;;;;;;;;;5.20;1.00;;;;;;4995017;28;19977;-69
2021/01/12 04:22:38;;;;;;;;;;;5.30;1.00;;;;;;4994835;28;20397;-68
2021/01/12 04:25:05;;;;;;;;;;;5.30;1.00;;;;;;4995266;28;19921;-68
2021/01/12 04:27:31;;;;;;;;;;;5.30;1.00;;;;;;4994992;28;19973;-68
2021/01/12 04:29:57;;;;;;;;;;;5.30;1.00;;;;;;4995027;28;19928;-69
2021/01/12 04:32:23;;;;;;;;;;;5.30;1.00;;;;;;4994318;28;19925;-69
2021/01/12 04:34:49;;;;;;;;;;;5.40;1.00;;;;;;4995241;28;19921;-68
2021/01/12 04:37:15;;;;;;;;;;;5.40;1.00;;;;;;4994859;28;19921;-69
2021/01/12 04:39:41;;;;;;;;;;;5.40;1.00;;;;;;4994940;28;19929;-69
2021/01/12 04:42:08;;;;;;;;;;;5.40;1.00;;;;;;4994764;28;19975;-68
2021/01/12 04:44:34;;;;;;;;;;;5.40;1.00;;;;;;4994643;28;19925;-69
2021/01/12 04:47:00;;;;;;;;;;;5.40;1.00;;;;;;4994548;28;20437;-69
2021/01/12 04:49:26;;;;;;;;;;;5.50;1.00;;;;;;4994670;28;19973;-69
2021/01/12 04:51:52;;;;;;;;;;;5.40;1.00;;;;;;4994546;28;20243;-69
2021/01/12 04:54:18;;;;;;;;;;;5.50;1.00;;;;;;4994467;28;20370;-69
2021/01/12 04:56:44;;;;;;;;;;;5.50;13.00;;;;;;4994688;28;19928;-69
2021/01/12 04:59:11;;;;;;;;;;;5.50;18.80;;;;;;4994548;28;19922;-69
2021/01/12 05:01:37;;;;;;;;;;;5.50;47.80;;;;;;4993730;28;19926;-70
2021/01/12 05:04:04;;;;;;;;;;;5.50;68.20;;;;;;4994687;28;19952;-69
2021/01/12 05:06:30;;;;;;;;;;;5.60;97.10;;;;;;4994366;28;19922;-69
2021/01/12 05:08:56;;;;;;;;;;;5.50;93.90;;;;;;4994355;28;20081;-70
2021/01/12 05:11:24;;;;;;;;;;;5.60;99.90;;;;;;4993473;28;19929;-69
2021/01/12 05:13:53;;;;;;;;;;;5.60;99.90;;;;;;4994097;28;19999;-70
2021/01/12 05:16:22;;;;;;;;;;;5.70;99.90;;;;;;4994474;28;19921;-69
2021/01/12 05:18:50;;;;;;;;;;;5.70;99.90;;;;;;4994189;28;19922;-69
2021/01/12 05:21:17;;;;;;;;;;;5.70;99.90;;;;;;4994057;28;20376;-69
2021/01/12 05:23:51;;;;;;;;;;;5.70;99.90;;;;;;4994133;28;19922;-69
2021/01/12 05:26:18;;;;;;;;;;;5.70;99.90;;;;;;4991535;28;19925;-69
2021/01/12 05:28:44;;;;;;;;;;;5.70;99.90;;;;;;4993772;28;19929;-69
2021/01/12 05:31:11;;;;;;;;;;;5.70;99.90;;;;;;5025156;28;19921;-68
2021/01/12 05:33:39;;;;;;;;;;;5.70;99.90;;;;;;5032568;28;19928;-69
2021/01/12 05:36:06;;;;;;;;;;;5.80;99.90;;;;;;5032749;28;19932;-69
2021/01/12 05:38:32;;;;;;;;;;;5.80;99.90;;;;;;5032877;28;20015;-70
2021/01/12 05:40:59;;;;;;;;;;;5.80;99.90;;;;;;5033992;28;19936;-70
2021/01/12 05:43:30;;;;;;;;;;;5.80;99.90;;;;;;5034447;28;20289;-69
2021/01/12 05:45:56;;;;;;;;;;;5.90;99.90;;;;;;5033039;28;19921;-69
2021/01/12 05:48:22;;;;;;;;;;;5.80;99.90;;;;;;5033477;28;19921;-69
2021/01/12 05:50:50;;;;;;;;;;;5.90;94.10;;;;;;5034387;28;20274;-69
2021/01/12 05:53:21;;;;;;;;;;;5.80;87.40;;;;;;5033935;28;19928;-70
2021/01/12 05:55:50;;;;;;;;;;;5.80;99.90;;;;;;5034094;28;19979;-67
2021/01/12 05:58:19;;;;;;;;;;;5.90;99.90;;;;;;5032640;28;20353;-67
2021/01/12 06:00:46;;;;;;;;;;;5.90;99.90;;;;;;5032449;28;19921;-68
2021/01/12 06:03:14;;;;;;;;;;;5.90;99.90;;;;;;5032624;28;19975;-67
2021/01/12 06:05:40;;;;;;;;;;;5.90;99.90;;;;;;5032224;28;20365;-67
2021/01/12 06:08:07;;;;;;;;;;;5.90;99.90;;;;;;5032556;28;19972;-67
2021/01/12 06:10:38;;;;;;;;;;;5.90;99.90;;;;;;5032183;28;20297;-68
2021/01/12 06:13:10;;;;;;;;;;;5.90;99.90;;;;;;5032601;28;19928;-68
2021/01/12 06:15:40;;;;;;;;;;;6.00;99.90;;;;;;5032359;28;19920;-68
2021/01/12 06:18:10;;;;;;;;;;;6.00;99.90;;;;;;5032323;28;19921;-67
2021/01/12 06:20:44;;;;;;;;;;;6.00;99.90;;;;;;5031752;28;19928;-69
2021/01/12 06:23:16;;;;;;;;;;;6.00;99.90;;;;;;5031321;28;19921;-69
2021/01/12 06:25:43;;;;;;;;;;;6.00;99.90;;;;;;5032341;28;19921;-67
2021/01/12 06:28:09;;;;;;;;;;;6.00;99.90;;;;;;5031902;28;20374;-67
2021/01/12 06:30:35;;;;;;;;;;;6.00;99.90;;;;;;5031358;28;19929;-69
2021/01/12 06:33:02;;;;;;;;;;;6.00;99.90;;;;;;5032245;28;19921;-69
2021/01/12 06:35:29;;;;;;;;;;;6.10;99.90;;;;;;5032486;28;19925;-69
2021/01/12 06:37:56;;;;;;;;;;;6.10;99.90;;;;;;5025726;28;19994;-69
2021/01/12 06:40:23;;;;;;;;;;;6.10;99.90;;;;;;5012254;28;19975;-74
2021/01/12 06:42:49;;;;;;;;;;;6.10;99.90;;;;;;5012264;28;19967;-74
2021/01/12 06:45:15;;;;;;;;;;;6.10;99.90;;;;;;5012363;28;19921;-74
2021/01/12 06:47:42;;;;;;;;;;;6.10;99.90;;;;;;5012438;28;19944;-75
2021/01/12 06:50:09;;;;;;;;;;;6.10;99.90;;;;;;5012719;28;20293;-74
2021/01/12 06:52:41;;;;;;;;;;;6.10;99.90;;;;;;5012060;28;19922;-74
2021/01/12 06:55:08;;;;;;;;;;;6.10;99.90;;;;;;5012569;28;20337;-69
2021/01/12 06:57:35;;;;;;;;;;;6.10;99.90;;;;;;5012273;28;19929;-69
2021/01/12 07:00:04;;;;;;;;;;;6.10;99.90;;;;;;5012218;28;19968;-68
2021/01/12 07:02:31;;;;;;;;;;;6.20;99.90;;;;;;5011516;28;20382;-68
2021/01/12 07:04:58;;;;;;;;;;;6.20;99.90;;;;;;5012164;28;19948;-68
2021/01/12 07:07:25;;;;;;;;;;;6.20;99.90;;;;;;5012000;28;20360;-71
2021/01/12 07:09:54;;;;;;;;;;;6.20;99.90;;;;;;5011943;28;19921;-71
2021/01/12 07:28:03;;;;;;;;;;;6.20;99.90;;;;;;4950386;29;19929;-70
2021/01/12 07:30:39;;;;;;;;;;;6.20;99.90;;;;;;4950134;29;19929;-72
2021/01/12 07:39:32;;;;;;;;;;;6.20;1.00;;;;;;5004439;28;19917;-70
2021/01/12 07:42:00;;;;;;;;;;;6.20;1.00;;;;;;5014422;28;20011;-70
2021/01/12 07:50:18;;;;;;;;;;;6.30;1.00;;;;;;4934363;29;19918;-69
2021/01/12 07:55:50;;;;;;;;;;;6.30;1.00;;;;;;5014063;28;20304;-69
2021/01/12 07:58:38;;;;;;;;;;;6.30;1.00;;;;;;5014657;28;19921;-71
2021/01/12 08:01:06;;;;;;;;;;;6.50;23.10;;;;;;5014334;28;19927;-71
2021/01/12 08:06:40;;;;;;;;;;;6.50;30.80;;;;;;4993125;28;20009;-69
2021/01/12 08:09:23;;;;;;;;;;;6.60;37.10;;;;;;5014008;28;19925;-70
2021/01/12 08:11:53;;;;;;;;;;;6.60;1.00;;;;;;5014099;28;19929;-71
2021/01/12 08:14:23;;;;;;;;;;;6.60;1.00;;;;;;5014222;28;19921;-70
2021/01/12 08:16:52;;;;;;;;;;;6.50;1.00;;;;;;5014363;28;19925;-70
2021/01/12 08:44:31;;;;;;;;;;;6.60;26.10;;;;;;4934415;28;19918;-69
2021/01/12 08:47:27;;;;;;;;;;;6.60;45.40;;;;;;4991788;28;19948;-69
2021/01/12 08:50:28;;;;;;;;;;;;;;;;;;;;;
2021/01/12 08:53:21;;;;;;;;;;;6.60;87.60;;;;;;5013115;28;19926;-68
2021/01/12 08:55:53;;;;;;;;;;;6.70;91.40;;;;;;5012372;28;19928;-71
2021/01/12 09:10:32;;;;;;;;;;;6.70;83.50;;;;;;5055195;28;19954;-69
2021/01/12 09:28:37;;;;;;;;;;;6.80;17.40;;;;;;4933271;29;20418;-69
2021/01/12 09:40:22;;;;;;;;;;;6.60;99.90;;;;;;4876804;29;19968;-67
2021/01/12 09:43:00;;;;;;;;;;;6.70;99.90;;;;;;4876160;29;20364;-67
2021/01/12 09:45:27;;;;;;;;;;;6.60;99.90;;;;;;4908970;28;19922;-67
2021/01/12 09:48:16;;;;;;;;;;;6.70;99.90;;;;;;5038952;28;19927;-67
2021/01/12 09:50:41;;;;;;;;;;;6.70;99.90;;;;;;5052346;28;19983;-67
2021/01/12 09:53:08;;;;;;;;;;;6.70;99.90;;;;;;5052054;28;20376;-68
2021/01/12 09:55:35;;;;;;;;;;;6.80;99.90;;;;;;5053958;28;19982;-68
2021/01/12 09:58:01;;;;;;;;;;;6.70;99.90;;;;;;5053966;28;19986;-67
2021/01/12 10:00:29;;;;;;;;;;;6.70;99.90;;;;;;5053315;28;20365;-66
2021/01/12 10:02:55;;;;;;;;;;;6.80;99.90;;;;;;5052645;28;19928;-66
2021/01/12 10:05:21;;;;;;;;;;;6.80;99.90;;;;;;5052669;28;19921;-66
2021/01/12 10:07:48;;;;;;;;;;;6.70;99.90;;;;;;5052491;28;19920;-66
2021/01/12 10:10:14;;;;;;;;;;;6.70;99.90;;;;;;5052952;28;19929;-67
2021/01/12 10:12:41;;;;;;;;;;;6.80;99.90;;;;;;5051712;28;19920;-67
2021/01/12 10:15:08;;;;;;;;;;;6.80;99.90;;;;;;5052245;28;19920;-66
2021/01/12 10:17:46;;;;;;;;;;;6.80;99.90;;;;;;5052519;28;19932;-67
2021/01/12 10:20:13;;;;;;;;;;;6.80;99.90;;;;;;5051459;28;20301;-68
2021/01/12 10:22:39;;;;;;;;;;;6.80;99.90;;;;;;5051367;28;19928;-68
2021/01/12 10:25:14;;;;;;;;;;;6.80;99.90;;;;;;5051968;28;19920;-70
2021/01/12 10:27:41;;;;;;;;;;;6.80;99.90;;;;;;5050987;28;20381;-69
2021/01/12 10:30:09;;;;;;;;;;;6.70;99.90;;;;;;5051753;28;19920;-69
2021/01/12 10:32:37;;;;;;;;;;;6.80;99.90;;;;;;5050588;28;19936;-69
2021/01/12 10:35:05;;;;;;;;;;;6.80;99.90;;;;;;5051600;28;19925;-71
2021/01/12 10:37:32;;;;;;;;;;;6.70;99.90;;;;;;5051450;28;19966;-68
2021/01/12 10:39:59;;;;;;;;;;;6.70;99.90;;;;;;5051315;28;19928;-70
2021/01/12 10:42:25;;;;;;;;;;;6.60;99.90;;;;;;5051446;28;20289;-68
2021/01/12 10:44:52;;;;;;;;;;;6.60;74.30;;;;;;5051289;28;20016;-66
2021/01/12 10:47:23;;;;;;;;;;;6.50;14.30;;;;;;5051206;28;20308;-68
2021/01/12 10:49:49;;;;;;;;;;;6.50;1.00;;;;;;5051249;28;19943;-67
2021/01/12 10:52:17;;;;;;;;;;;6.40;1.00;;;;;;5051543;28;19920;-66
2021/01/12 10:54:46;;;;;;;;;;;6.40;1.00;;;;;;5051218;28;20331;-68
2021/01/12 11:00:16;;;;;;;;;;;6.40;1.00;;;;;;5052161;28;19964;-67
2021/01/12 11:02:42;;;;;;;;;;;6.40;1.00;;;;;;5051391;28;19928;-67
2021/01/12 11:05:33;;;;;;;;;;;6.40;1.00;;;;;;5052354;28;19925;-71
2021/01/12 11:07:59;;;;;;;;;;;6.50;1.00;;;;;;5042943;28;19933;-66
2021/01/12 11:10:29;;;;;;;;;;;6.50;1.00;;;;;;5055294;28;20532;-69
2021/01/12 11:12:56;;;;;;;;;;;6.40;1.00;;;;;;5055010;28;19920;-67
2021/01/12 11:15:28;;;;;;;;;;;6.40;1.00;;;;;;5055371;28;19920;-67
2021/01/12 11:17:54;;;;;;;;;;;6.40;1.00;;;;;;5055011;28;20007;-66
2021/01/12 11:20:25;;;;;;;;;;;6.40;99.90;;;;;;5054870;28;20046;-69
2021/01/12 11:22:52;;;;;;;;;;;6.40;99.90;;;;;;5054391;28;19947;-69
2021/01/12 11:28:27;;;;;;;;;;;6.40;99.90;;;;;;5051020;28;20282;-71
2021/01/12 11:30:53;;;;;;;;;;;6.40;99.90;;;;;;5054653;28;19921;-70
2021/01/12 11:33:20;;;;;;;;;;;6.30;46.20;;;;;;5054426;28;20691;-71
2021/01/12 11:36:04;;;;;;;;;;;6.10;99.90;;;;;;5054917;28;19928;-72
2021/01/12 11:38:31;;;;;;;;;;;6.10;1.00;;;;;;5054707;28;19925;-71
2021/01/12 11:40:58;;;;;;;;;;;6.00;1.00;;;;;;5054617;28;19920;-71
2021/01/12 11:43:28;;;;;;;;;;;6.10;99.90;;;;;;5054197;28;20301;-71
2021/01/12 12:07:43;;;;;;;;;;;6.10;99.90;;;;;;4915852;29;19997;-71
2021/01/12 12:19:15;;;;;;;;;;;6.10;96.70;;;;;;4914247;29;19961;-70
2021/01/12 12:43:23;;;;;;;;;;;5.50;1.00;;;;;;1416253;26;20012;-67
2021/01/12 12:49:05;;;;;;;;;;;5.10;99.90;;;;;;4994416;28;19917;-71
2021/01/12 12:54:37;;;;;;;;;;;4.90;1.00;;;;;;4993984;28;19952;-70
2021/01/12 13:12:34;;;;;;;;;;;4.90;99.90;;;;;;4993679;28;20053;-69
2021/01/12 13:18:09;;;;;;;;;;;4.90;1.00;;;;;;4993750;28;19960;-69
2021/01/12 13:23:40;;;;;;;;;;;5.00;99.90;;;;;;4993071;28;19932;-67
2021/01/12 13:44:33;;;;;;;;;;;5.50;99.90;;;;;;4992723;28;20437;-71
2021/01/12 13:50:17;;;;;;;;;;;5.30;7.70;;;;;;4976771;28;19917;-70
2021/01/12 13:52:59;;;;;;;;;;;5.10;1.00;;;;;;4993534;28;19922;-73
2021/01/12 13:55:27;;;;;;;;;;;4.90;62.60;;;;;;4993804;28;20348;-71
2021/01/12 13:58:05;;;;;;;;;;;4.80;1.00;;;;;;4993312;28;19922;-72
2021/01/12 14:00:39;;;;;;;;;;;4.70;99.90;;;;;;4993153;28;19922;-72
2021/01/12 14:03:12;;;;;;;;;;;4.60;99.90;;;;;;4992724;28;20381;-70
2021/01/12 14:12:02;;;;;;;;;;;;;;;;;;;;;
2021/01/12 14:14:33;;;;;;;;;;;4.70;99.90;;;;;;4992231;28;19928;-70
2021/01/12 14:20:28;;;;;;;;;;;4.80;1.00;;;;;;4987721;28;19932;-70
2021/01/12 14:23:34;;;;;;;;;;;4.80;1.00;;;;;;4992599;28;19956;-69
2021/01/12 14:47:37;;;;;;;;;;;4.30;99.90;;;;;;4951183;28;19917;-69
2021/01/12 14:50:04;;;;;;;;;;;4.20;1.00;;;;;;4951038;28;20342;-67
2021/01/12 14:55:32;;;;;;;;;;;4.00;1.00;;;;;;4951537;29;20307;-69
2021/01/12 15:36:55;;;;;;;;;;;3.50;99.90;;;;;;5446476;22;19925;-71
2021/01/12 15:42:35;;;;;;;;;;;3.50;99.90;;;;;;5010808;28;19916;-71
2021/01/12 15:48:39;;;;;;;;;;;3.50;1.00;;;;;;5011951;28;20013;-70
2021/01/12 16:00:48;;;;;;;;;;;;;;;;;;;;;
2021/01/12 16:13:02;;;;;;;;;;;3.80;1.00;;;;;;5014610;28;19921;-71
2021/01/12 17:32:29;;;;;;;;;;;3.50;1.00;;;;;;5001533;28;19921;-70
2021/01/12 17:35:34;;;;;;;;;;;3.50;1.00;;;;;;5006141;28;20003;-70
2021/01/12 17:38:02;;;;;;;;;;;3.40;10.60;;;;;;4993303;28;19928;-71
2021/01/12 17:43:34;;;;;;;;;;;3.40;35.70;;;;;;4993174;28;19917;-69
2021/01/12 19:05:32;;;;;;;;;;;2.40;1.00;;;;;;4933276;29;20411;-70
2021/01/12 19:08:00;;;;;;;;;;;2.40;99.90;;;;;;4933036;29;19929;-71
2021/01/12 19:10:26;;;;;;;;;;;2.30;99.90;;;;;;4944470;29;19922;-70
2021/01/12 19:12:53;;;;;;;;;;;2.20;99.90;;;;;;4990181;28;19921;-70
2021/01/12 19:15:19;;;;;;;;;;;2.20;99.90;;;;;;4993035;28;19968;-70
2021/01/12 19:17:46;;;;;;;;;;;2.20;99.90;;;;;;4993120;28;20301;-70
2021/01/12 19:20:32;;;;;;;;;;;2.10;99.90;;;;;;4987627;28;19932;-73
2021/01/12 19:23:26;;;;;;;0.00;0.00;;;2.10;99.90;;;;;;4990742;28;20756;-73
2021/01/12 19:25:58;;;;;;;0.00;0.00;;;2.10;1.00;;;;;;4994313;28;20407;-71
2021/01/12 19:28:52;;;;;;;0.00;0.00;;;2.10;1.00;;;;;;4992154;28;20442;-73
2021/01/12 19:32:04;;;;;;;0.00;0.00;;;2.00;1.00;;;;;;4995797;28;20407;-73
2021/01/12 19:35:32;;;;;;;;;;;;;;;;;;;;;
2021/01/12 21:56:40;;;;;;;0.00;0.00;;;1.40;1.00;;;;;;5333842;23;20438;-71
2021/01/12 21:59:06;;;;;;;0.00;0.00;;;1.30;1.00;;;;;;5031923;28;20430;-70
2021/01/12 22:01:32;;;;;;;0.00;0.00;;;1.20;36.50;;;;;;5031961;28;20419;-70
2021/01/12 22:03:58;;;;;;;0.00;0.00;;;1.30;99.90;;;;;;5031672;28;20423;-72
2021/01/12 22:06:26;;;;;;;0.00;0.00;;;1.20;99.90;;;;;;5031656;28;20421;-71
2021/01/12 22:08:54;;;;;;;0.00;0.00;;;1.20;99.90;;;;;;5032157;28;20419;-72
2021/01/12 22:11:21;;;;;;;0.00;0.00;;;1.20;99.90;;;;;;5031806;28;20423;-72
2021/01/12 22:13:48;;;;;;;0.00;0.00;;;1.30;99.90;;;;;;5031180;28;20415;-71
2021/01/12 22:16:14;;;;;;;0.00;0.00;;;1.30;99.90;;;;;;5031409;28;20960;-71
2021/01/12 22:18:40;;;;;;;0.00;0.00;;;1.40;99.90;;;;;;5031445;28;20418;-72
2021/01/12 22:21:06;;;;;;;0.00;0.00;;;1.40;1.00;;;;;;5031346;28;20414;-72
2021/01/12 22:23:33;;;;;;;0.00;0.00;;;1.50;1.00;;;;;;5031592;28;20430;-72
2021/01/12 22:25:59;;;;;;;0.00;0.00;;;1.50;1.00;;;;;;5031373;28;20423;-71
2021/01/12 22:28:25;;;;;;;0.00;0.00;;;1.50;1.00;;;;;;5031529;28;20423;-72
2021/01/12 22:30:52;;;;;;;0.00;0.00;;;1.50;1.00;;;;;;5031521;28;20784;-71
2021/01/12 22:33:18;;;;;;;0.00;0.00;;;1.60;1.00;;;;;;5031045;28;20419;-72
2021/01/12 22:35:44;;;;;;;0.00;0.00;;;1.60;1.00;;;;;;5032062;28;20415;-71
2021/01/12 22:38:10;;;;;;;0.00;0.00;;;1.60;99.90;;;;;;5032663;28;20811;-72
2021/01/12 22:40:36;;;;;;;0.00;0.00;;;1.50;99.90;;;;;;5031533;28;20431;-72
2021/01/12 22:43:02;;;;;;;0.00;0.00;;;1.40;99.90;;;;;;5031073;28;20419;-72
2021/01/12 22:45:28;;;;;;;0.00;0.00;;;1.50;99.90;;;;;;5031973;28;20430;-72
2021/01/12 22:47:55;;;;;;;0.00;0.00;;;1.40;44.60;;;;;;5031738;28;20422;-71
2021/01/12 22:50:21;;;;;;;0.00;0.00;;;1.30;1.00;;;;;;5033259;28;20521;-72
2021/01/12 22:52:47;;;;;;;0.00;0.00;;;1.30;2.00;;;;;;5034137;28;20415;-72
2021/01/12 22:55:14;;;;;;;0.00;0.00;;;1.30;1.00;;;;;;5033362;28;20835;-72
2021/01/12 22:57:42;;;;;;;0.00;0.00;;;1.30;1.00;;;;;;5032615;28;20419;-72
2021/01/12 23:00:17;;;;;;;0.00;0.00;;;1.30;1.00;;;;;;5034262;28;20429;-72
2021/01/12 23:02:43;;;;;;;0.00;0.00;;;1.20;1.00;;;;;;5034184;28;20430;-73
2021/01/12 23:05:11;;;;;;;0.00;0.00;;;1.20;1.00;;;;;;5033536;28;20776;-71
2021/01/12 23:07:37;;;;;;;0.00;0.00;;;1.10;1.00;;;;;;5035720;28;21055;-71
2021/01/12 23:10:04;;;;;;;0.00;0.00;;;1.10;1.00;;;;;;5034924;28;20792;-72
2021/01/12 23:12:31;;;;;;;0.00;0.00;;;1.10;1.00;;;;;;5034964;28;20468;-71
2021/01/12 23:14:57;;;;;;;0.00;0.00;;;1.00;1.00;;;;;;5034896;28;20456;-71
2021/01/12 23:17:28;;;;;;;0.00;0.00;;;1.00;1.00;;;;;;5034603;28;20756;-71
2021/01/12 23:19:54;;;;;;;0.00;0.00;;;1.10;1.00;;;;;;5034563;28;20930;-73
2021/01/12 23:22:21;;;;;;;0.00;0.00;;;1.10;1.00;;;;;;5034580;28;20823;-73
2021/01/12 23:24:47;;;;;;;0.00;0.00;;;1.00;1.00;;;;;;5034587;28;20419;-72
2021/01/12 23:27:13;;;;;;;0.00;0.00;;;1.00;61.90;;;;;;5034815;28;20415;-73
2021/01/12 23:29:39;;;;;;;0.00;0.00;;;1.10;17.20;;;;;;5034519;28;20441;-72
2021/01/12 23:32:05;;;;;;;0.00;0.00;;;1.10;1.00;;;;;;5034329;28;20783;-72
2021/01/12 23:34:31;;;;;;;0.00;0.00;;;1.00;1.00;;;;;;5034921;28;20422;-72
2021/01/12 23:36:57;;;;;;;0.00;0.00;;;1.00;1.00;;;;;;5034647;28;20407;-72
2021/01/12 23:39:24;;;;;;;0.00;0.00;;;0.90;1.00;;;;;;5034619;28;20426;-72
2021/01/12 23:41:50;;;;;;;0.00;0.00;;;0.90;3.20;;;;;;5034552;28;20423;-72
2021/01/12 23:44:16;;;;;;;0.00;0.00;;;0.90;58.50;;;;;;5033818;28;20415;-73
2021/01/12 23:46:43;;;;;;;0.00;0.00;;;0.90;94.30;;;;;;5034155;28;20826;-72
2021/01/12 23:49:11;;;;;;;0.00;0.00;;;1.00;99.90;;;;;;5034525;28;20791;-72
2021/01/12 23:51:40;;;;;;;0.00;0.00;;;1.00;78.10;;;;;;5034243;28;20992;-72
2021/01/12 23:54:07;;;;;;;0.00;0.00;;;0.90;29.50;;;;;;5033669;28;20425;-72
2021/01/12 23:56:33;;;;;;;0.00;0.00;;;0.90;99.90;;;;;;5034222;28;20481;-73
2021/01/12 23:59:00;;;;;;;0.00;0.00;;;0.80;1.00;;;;;;5033633;28;20442;-72
